createdAt,value
2018-05-11T00:01:37.281Z,94567.20
2018-05-11T00:04:05.971Z,94579.59
2018-05-11T00:06:34.584Z,94579.89
2018-05-11T00:09:02.818Z,94579.95
2018-05-11T00:11:31.388Z,94584.91
2018-05-11T00:13:59.959Z,94584.22
2018-05-11T00:16:28.506Z,94595.20
2018-05-11T00:18:57.067Z,94590.97
2018-05-11T00:21:25.622Z,94596.55
2018-05-11T00:23:54.840Z,94593.61
2018-05-11T00:26:25.022Z,94594.08
2018-05-11T00:28:53.577Z,94591.59
2018-05-11T00:31:22.165Z,94584.92
2018-05-11T00:33:50.771Z,94584.70
2018-05-11T00:36:19.335Z,94593.27
2018-05-11T00:38:47.903Z,94587.13
2018-05-11T00:41:16.463Z,94585.72
2018-05-11T00:43:45.037Z,94589.19
2018-05-11T00:46:13.605Z,94589.45
2018-05-11T00:48:42.170Z,94588.70
2018-05-11T00:51:10.875Z,94596.20
2018-05-11T00:53:39.555Z,94599.65
2018-05-11T00:56:07.885Z,94597.48
2018-05-11T00:58:36.867Z,94596.57
2018-05-11T01:01:05.117Z,94603.61
2018-05-11T01:03:33.687Z,94599.94
2018-05-11T01:06:02.499Z,94593.12
2018-05-11T01:08:31.096Z,94596.45
2018-05-11T01:10:59.667Z,94600.56
2018-05-11T01:13:28.237Z,94604.21
2018-05-11T01:15:57.020Z,94604.38
2018-05-11T01:18:25.575Z,94606.77
2018-05-11T01:20:54.184Z,94603.55
2018-05-11T01:23:22.746Z,94596.61
2018-05-11T01:25:51.369Z,94597.81
2018-05-11T01:28:19.955Z,94601.38
2018-05-11T01:30:48.520Z,94597.19
2018-05-11T01:33:16.848Z,94594.54
2018-05-11T01:35:45.420Z,94595.27
2018-05-11T01:38:13.974Z,94595.34
2018-05-11T01:40:42.533Z,94602.81
2018-05-11T01:43:11.147Z,94599.70
2018-05-11T01:45:39.995Z,94594.56
2018-05-11T01:48:08.615Z,94596.22
2018-05-11T01:50:37.195Z,94595.25
2018-05-11T01:53:05.751Z,94590.19
2018-05-11T01:55:34.316Z,94591.05
2018-05-11T01:58:02.915Z,94587.36
2018-05-11T02:00:31.524Z,94592.23
2018-05-11T02:03:00.132Z,94596.78
2018-05-11T02:05:28.707Z,94596.37
2018-05-11T02:07:57.271Z,94596.80
2018-05-11T02:10:25.907Z,94599.30
2018-05-11T02:12:54.466Z,94596.74
2018-05-11T02:15:23.037Z,94597.09
2018-05-11T02:17:51.604Z,94600.27
2018-05-11T02:20:20.206Z,94595.13
2018-05-11T02:22:48.783Z,94594.82
2018-05-11T02:25:17.365Z,94595.05
2018-05-11T02:27:45.908Z,94599.50
2018-05-11T02:30:14.546Z,94600.99
2018-05-11T02:32:43.147Z,94604.90
2018-05-11T02:35:11.741Z,94607.31
2018-05-11T02:37:40.317Z,94609.55
2018-05-11T02:40:08.875Z,94609.58
2018-05-11T02:42:37.485Z,94611.76
2018-05-11T02:45:06.067Z,94608.09
2018-05-11T02:47:34.657Z,94618.83
2018-05-11T02:50:03.299Z,94623.03
2018-05-11T02:52:31.900Z,94623.42
2018-05-11T02:55:00.550Z,94633.42
2018-05-11T02:57:29.882Z,94629.55
2018-05-11T02:59:58.502Z,94630.03
2018-05-11T03:02:27.401Z,94626.87
2018-05-11T03:04:56.014Z,94633.48
2018-05-11T03:07:24.631Z,94636.36
2018-05-11T03:09:53.251Z,94636.76
2018-05-11T03:12:22.011Z,94642.53
2018-05-11T03:14:50.570Z,94637.16
2018-05-11T03:17:19.154Z,94639.58
2018-05-11T03:19:49.847Z,94638.16
2018-05-11T03:22:18.417Z,94644.89
2018-05-11T03:24:46.985Z,94649.48
2018-05-11T03:27:15.596Z,94653.66
2018-05-11T03:29:44.149Z,94663.83
2018-05-11T03:32:12.754Z,94668.53
2018-05-11T03:34:41.315Z,94670.84
2018-05-11T03:37:09.885Z,94674.38
2018-05-11T03:39:38.453Z,94680.75
2018-05-11T03:42:07.076Z,94682.25
2018-05-11T03:44:35.667Z,94684.38
2018-05-11T03:47:04.252Z,94689.48
2018-05-11T03:49:32.899Z,94694.03
2018-05-11T03:52:01.482Z,94697.02
2018-05-11T03:54:30.124Z,94696.21
2018-05-11T03:56:58.720Z,94698.51
2018-05-11T03:59:27.662Z,94713.31
2018-05-11T04:02:07.755Z,94707.77
2018-05-11T04:04:47.393Z,94708.56
2018-05-11T04:07:26.811Z,94713.91
2018-05-11T04:09:56.799Z,94713.83
2018-05-11T04:12:25.408Z,94717.53
2018-05-11T04:14:53.976Z,94718.97
2018-05-11T04:17:22.536Z,94722.02
2018-05-11T04:19:51.098Z,94725.15
2018-05-11T04:22:19.644Z,94726.30
2018-05-11T04:24:48.225Z,94726.25
2018-05-11T04:27:16.776Z,94720.19
2018-05-11T04:29:45.388Z,94728.09
2018-05-11T04:32:13.936Z,94731.79
2018-05-11T04:34:42.519Z,94718.27
2018-05-11T04:37:11.111Z,94721.38
2018-05-11T04:39:39.856Z,94725.38
2018-05-11T04:42:08.427Z,94733.77
2018-05-11T04:44:37.177Z,94733.61
2018-05-11T04:47:05.751Z,94736.16
2018-05-11T04:49:34.353Z,94738.91
2018-05-11T04:52:02.910Z,94747.38
2018-05-11T04:54:31.470Z,94746.73
2018-05-11T04:57:00.027Z,94749.50
2018-05-11T04:59:28.614Z,94748.25
2018-05-11T05:01:57.170Z,94743.17
2018-05-11T05:04:25.767Z,94748.66
2018-05-11T05:06:54.852Z,94758.55
2018-05-11T05:09:23.408Z,94757.39
2018-05-11T05:11:52.027Z,94760.91
2018-05-11T05:14:21.029Z,94763.45
2018-05-11T05:16:49.622Z,94761.96
2018-05-11T05:19:17.983Z,94766.25
2018-05-11T05:21:46.475Z,94756.47
2018-05-11T05:24:15.028Z,94764.19
2018-05-11T05:26:43.789Z,94763.84
2018-05-11T05:29:13.729Z,94768.51
2018-05-11T05:31:42.345Z,94771.63
2018-05-11T05:34:10.899Z,94772.13
2018-05-11T05:36:39.464Z,94767.84
2018-05-11T05:39:08.265Z,94755.09
2018-05-11T05:41:37.118Z,94752.80
2018-05-11T05:44:05.702Z,94755.45
2018-05-11T05:46:34.255Z,94759.75
2018-05-11T05:49:02.812Z,94761.27
2018-05-11T05:51:31.389Z,94768.02
2018-05-11T05:54:01.193Z,94762.17
2018-05-11T05:56:29.761Z,94764.56
2018-05-11T05:58:58.367Z,94771.87
2018-05-11T06:01:26.949Z,94767.25
2018-05-11T06:03:55.519Z,94769.40
2018-05-11T06:06:24.084Z,94766.73
2018-05-11T06:08:52.643Z,94770.83
2018-05-11T06:11:21.279Z,94773.91
2018-05-11T06:13:52.604Z,94772.87
2018-05-11T06:16:22.668Z,94776.95
2018-05-11T06:18:51.262Z,94776.76
2018-05-11T06:21:24.935Z,94786.98
2018-05-11T06:23:53.856Z,94795.47
2018-05-11T06:26:22.440Z,94800.06
2018-05-11T06:28:52.020Z,94800.08
2018-05-11T06:31:20.582Z,94796.11
2018-05-11T06:33:49.152Z,94794.77
2018-05-11T06:36:17.770Z,94801.67
2018-05-11T06:38:46.329Z,94809.30
2018-05-11T06:41:14.947Z,94807.21
2018-05-11T06:43:43.553Z,94818.33
2018-05-11T06:46:12.252Z,94813.66
2018-05-11T06:48:41.017Z,94818.52
2018-05-11T06:51:10.343Z,94813.27
2018-05-11T06:53:38.903Z,94807.09
2018-05-11T06:56:07.540Z,94806.30
2018-05-11T06:58:36.150Z,94806.92
2018-05-11T07:01:04.757Z,94807.61
2018-05-11T07:03:33.320Z,94805.77
2018-05-11T07:06:01.912Z,94810.80
2018-05-11T07:08:30.537Z,94819.20
2018-05-11T07:10:59.093Z,94826.58
2018-05-11T07:13:27.698Z,94826.18
2018-05-11T07:15:56.400Z,94828.17
2018-05-11T07:18:24.958Z,94826.98
2018-05-11T07:20:53.552Z,94827.14
2018-05-11T07:23:22.171Z,94826.48
2018-05-11T07:25:50.765Z,94829.98
2018-05-11T07:28:19.577Z,94836.86
2018-05-11T07:30:48.151Z,94839.17
2018-05-11T07:33:16.751Z,94840.94
2018-05-11T07:35:45.318Z,94841.20
2018-05-11T07:38:13.953Z,94840.70
2018-05-11T07:40:42.525Z,94843.92
2018-05-11T07:43:11.213Z,94840.61
2018-05-11T07:45:39.891Z,94845.31
2018-05-11T07:48:08.163Z,94851.09
2018-05-11T07:50:36.784Z,94848.59
2018-05-11T07:53:05.355Z,94857.75
2018-05-11T07:55:33.918Z,94858.10
2018-05-11T07:58:02.491Z,94858.69
2018-05-11T08:00:31.067Z,94865.91
2018-05-11T08:02:59.656Z,94863.55
2018-05-11T08:05:28.218Z,94863.30
2018-05-11T08:07:56.787Z,94869.30
2018-05-11T08:10:25.384Z,94862.88
2018-05-11T08:12:53.971Z,94867.33
2018-05-11T08:15:22.527Z,94866.70
2018-05-11T08:17:51.105Z,94868.09
2018-05-11T08:20:19.655Z,94868.16
2018-05-11T08:22:48.232Z,94862.47
2018-05-11T08:25:16.849Z,94859.78
2018-05-11T08:27:45.417Z,94855.61
2018-05-11T08:30:14.028Z,94861.49
2018-05-11T08:32:42.507Z,94857.00
2018-05-11T08:35:11.105Z,94863.77
2018-05-11T08:37:39.691Z,94862.80
2018-05-11T08:40:08.251Z,94861.23
2018-05-11T08:42:36.829Z,94860.42
2018-05-11T08:45:05.391Z,94864.08
2018-05-11T08:47:33.969Z,94864.28
2018-05-11T08:50:02.545Z,94858.04
2018-05-11T08:52:31.110Z,94858.99
2018-05-11T08:54:59.671Z,94853.68
2018-05-11T08:57:28.264Z,94858.05
2018-05-11T08:59:56.819Z,94850.25
2018-05-11T09:02:25.375Z,94853.23
2018-05-11T09:04:54.003Z,94853.48
2018-05-11T09:07:22.593Z,94855.46
2018-05-11T09:09:51.191Z,94853.07
2018-05-11T09:12:19.801Z,94848.87
2018-05-11T09:14:48.352Z,94848.27
2018-05-11T09:17:16.927Z,94852.73
2018-05-11T09:19:45.541Z,94845.16
2018-05-11T09:22:14.156Z,94840.26
2018-05-11T09:24:42.727Z,94839.05
2018-05-11T09:27:11.299Z,94839.72
2018-05-11T09:29:39.873Z,94844.14
2018-05-11T09:32:08.450Z,94840.75
2018-05-11T09:34:37.205Z,94851.70
2018-05-11T09:37:05.811Z,94851.33
2018-05-11T09:39:34.515Z,94846.16
2018-05-11T09:42:03.223Z,94847.83
2018-05-11T09:44:31.789Z,94843.70
2018-05-11T09:47:00.381Z,94851.02
2018-05-11T09:49:29.030Z,94854.14
2018-05-11T09:51:57.796Z,94859.62
2018-05-11T09:54:26.372Z,94859.56
2018-05-11T09:56:56.248Z,94858.61
2018-05-11T09:59:24.840Z,94858.09
2018-05-11T10:01:53.514Z,94856.48
2018-05-11T10:04:21.999Z,94856.63
2018-05-11T10:06:50.221Z,94854.72
2018-05-11T10:09:18.843Z,94857.94
2018-05-11T10:11:47.417Z,94859.09
2018-05-11T10:14:16.009Z,94862.98
2018-05-11T10:16:44.584Z,94851.91
2018-05-11T10:19:13.165Z,94861.28
2018-05-11T10:21:41.723Z,94860.28
2018-05-11T10:24:10.287Z,94858.33
2018-05-11T10:26:38.840Z,94862.53
2018-05-11T10:29:07.409Z,94854.30
2018-05-11T10:31:35.751Z,94856.75
2018-05-11T10:34:04.107Z,94854.52
2018-05-11T10:36:32.670Z,94837.45
2018-05-11T10:39:01.307Z,94830.38
2018-05-11T10:41:29.901Z,94837.56
2018-05-11T10:43:58.470Z,94833.32
2018-05-11T10:46:27.044Z,94829.83
2018-05-11T10:48:55.668Z,94838.91
2018-05-11T10:51:24.443Z,94835.44
2018-05-11T10:53:53.016Z,94842.64
2018-05-11T10:56:21.583Z,94840.36
2018-05-11T10:58:50.158Z,94842.09
2018-05-11T11:01:18.747Z,94841.55
2018-05-11T11:03:47.311Z,94838.17
2018-05-11T11:06:15.926Z,94832.45
2018-05-11T11:08:44.485Z,94830.65
2018-05-11T11:11:13.054Z,94825.55
2018-05-11T11:13:41.752Z,94822.09
2018-05-11T11:16:10.399Z,94819.17
2018-05-11T11:18:38.954Z,94821.72
2018-05-11T11:21:07.304Z,94815.16
2018-05-11T11:23:35.854Z,94808.23
2018-05-11T11:26:04.441Z,94802.77
2018-05-11T11:28:33.253Z,94804.76
2018-05-11T11:31:01.911Z,94796.34
2018-05-11T11:33:30.557Z,94802.63
2018-05-11T11:35:59.120Z,94800.63
2018-05-11T11:38:27.768Z,94799.03
2018-05-11T11:40:56.192Z,94809.56
2018-05-11T11:43:24.763Z,94801.70
2018-05-11T11:45:53.354Z,94797.42
2018-05-11T11:48:21.916Z,94796.33
2018-05-11T11:50:50.497Z,94795.24
2018-05-11T11:53:19.057Z,94797.36
2018-05-11T11:55:47.691Z,94786.72
2018-05-11T11:58:16.278Z,94783.73
2018-05-11T12:00:44.896Z,94789.69
2018-05-11T12:03:13.453Z,94793.06
2018-05-11T12:05:42.035Z,94797.34
2018-05-11T12:08:10.594Z,94794.92
2018-05-11T12:10:39.139Z,94803.59
2018-05-11T12:13:07.837Z,94807.80
2018-05-11T12:15:36.418Z,94809.03
2018-05-11T12:18:05.037Z,94816.83
2018-05-11T12:20:33.595Z,94824.96
2018-05-11T12:23:02.200Z,94827.73
2018-05-11T12:25:30.769Z,94823.77
2018-05-11T12:27:59.335Z,94842.70
2018-05-11T12:30:27.931Z,94864.05
2018-05-11T12:32:56.510Z,94898.71
2018-05-11T12:35:25.066Z,94885.55
2018-05-11T12:37:53.636Z,94895.13
2018-05-11T12:40:22.219Z,94914.00
2018-05-11T12:42:50.771Z,94899.63
2018-05-11T12:45:19.340Z,94918.64
2018-05-11T12:47:47.940Z,94924.69
2018-05-11T12:50:16.523Z,94915.82
2018-05-11T12:52:45.187Z,94909.78
2018-05-11T12:55:13.901Z,94916.11
2018-05-11T12:57:42.499Z,94910.37
2018-05-11T13:00:11.101Z,94898.58
2018-05-11T13:02:39.712Z,94894.20
2018-05-11T13:05:08.277Z,94894.20
2018-05-11T13:07:36.851Z,94893.50
2018-05-11T13:10:05.069Z,94894.66
2018-05-11T13:12:33.632Z,94901.67
2018-05-11T13:15:02.276Z,94912.22
2018-05-11T13:17:30.969Z,94926.09
2018-05-11T13:19:59.530Z,94946.88
2018-05-11T13:22:28.099Z,94946.73
2018-05-11T13:24:56.340Z,94939.16
2018-05-11T13:27:24.979Z,94943.60
2018-05-11T13:29:53.534Z,94944.03
2018-05-11T13:32:22.227Z,94933.91
2018-05-11T13:34:50.840Z,94921.52
2018-05-11T13:37:19.406Z,94915.20
2018-05-11T13:39:47.978Z,94899.67
2018-05-11T13:42:16.535Z,94901.41
2018-05-11T13:44:45.131Z,94898.83
2018-05-11T13:47:13.742Z,94895.03
2018-05-11T13:49:42.389Z,94891.06
2018-05-11T13:52:11.009Z,94884.23
2018-05-11T13:54:39.562Z,94882.05
2018-05-11T13:57:08.170Z,94883.83
2018-05-11T13:59:36.723Z,94896.50
2018-05-11T14:02:05.339Z,94902.67
2018-05-11T14:04:33.910Z,94915.55
2018-05-11T14:07:02.721Z,94912.50
2018-05-11T14:09:31.316Z,94913.28
2018-05-11T14:11:59.869Z,94916.56
2018-05-11T14:14:28.935Z,94916.45
2018-05-11T14:16:57.508Z,94920.73
2018-05-11T14:19:26.101Z,94922.57
2018-05-11T14:21:54.688Z,94914.73
2018-05-11T14:24:23.283Z,94921.14
2018-05-11T14:26:52.071Z,94921.20
2018-05-11T14:29:20.773Z,94922.44
2018-05-11T14:31:49.427Z,94930.61
2018-05-11T14:34:17.946Z,94920.70
2018-05-11T14:36:46.225Z,94925.00
2018-05-11T14:39:14.829Z,94918.89
2018-05-11T14:41:43.765Z,94913.91
2018-05-11T14:44:12.142Z,94912.95
2018-05-11T14:46:40.730Z,94913.21
2018-05-11T14:49:09.316Z,94916.48
2018-05-11T14:51:37.990Z,94908.61
2018-05-11T14:54:06.562Z,94921.09
2018-05-11T14:56:36.444Z,94915.16
2018-05-11T14:59:05.011Z,94918.25
2018-05-11T15:01:35.239Z,94907.75
2018-05-11T15:04:03.825Z,94913.45
2018-05-11T15:06:32.419Z,94911.03
2018-05-11T15:09:00.762Z,94917.80
2018-05-11T15:11:29.375Z,94910.94
2018-05-11T15:13:57.978Z,94910.66
2018-05-11T15:16:26.547Z,94905.59
2018-05-11T15:18:55.147Z,94904.84
2018-05-11T15:21:23.704Z,94912.44
2018-05-11T15:23:52.589Z,94906.59
2018-05-11T15:26:21.414Z,94902.41
2018-05-11T15:28:49.974Z,94896.08
2018-05-11T15:31:18.639Z,94894.64
2018-05-11T15:33:48.178Z,94898.41
2018-05-11T15:36:16.744Z,94902.16
2018-05-11T15:38:45.309Z,94907.58
2018-05-11T15:41:14.350Z,94913.56
2018-05-11T15:43:42.932Z,94913.38
2018-05-11T15:46:11.487Z,94908.89
2018-05-11T15:48:40.063Z,94904.52
2018-05-11T15:51:08.672Z,94900.47
2018-05-11T15:53:37.258Z,94908.25
2018-05-11T15:56:05.816Z,94904.96
2018-05-11T15:58:34.404Z,94908.41
2018-05-11T16:01:02.977Z,94903.88
2018-05-11T16:03:31.544Z,94906.62
2018-05-11T16:06:00.236Z,94912.68
2018-05-11T16:08:28.904Z,94919.53
2018-05-11T16:10:57.478Z,94916.55
2018-05-11T16:13:26.031Z,94914.81
2018-05-11T16:15:54.597Z,94909.67
2018-05-11T16:18:23.147Z,94910.77
2018-05-11T16:20:51.605Z,94906.53
2018-05-11T16:23:20.376Z,94908.38
2018-05-11T16:25:48.971Z,94910.41
2018-05-11T16:28:17.577Z,94910.00
2018-05-11T16:30:46.382Z,94913.69
2018-05-11T16:33:14.962Z,94916.20
2018-05-11T16:35:43.532Z,94916.38
2018-05-11T16:38:12.088Z,94914.16
2018-05-11T16:40:40.657Z,94910.95
2018-05-11T16:43:09.235Z,94915.17
2018-05-11T16:45:37.847Z,94911.23
2018-05-11T16:48:06.405Z,94908.46
2018-05-11T16:50:34.980Z,94910.58
2018-05-11T16:53:03.319Z,94915.17
2018-05-11T16:55:31.940Z,94918.31
2018-05-11T16:58:00.613Z,94915.55
2018-05-11T17:00:29.254Z,94911.57
2018-05-11T17:02:57.869Z,94915.84
2018-05-11T17:05:26.431Z,94910.33
2018-05-11T17:07:54.997Z,94906.41
2018-05-11T17:10:23.679Z,94894.84
2018-05-11T17:12:52.372Z,94900.41
2018-05-11T17:15:20.935Z,94893.03
2018-05-11T17:17:49.496Z,94894.59
2018-05-11T17:20:18.127Z,94899.95
2018-05-11T17:22:46.760Z,94897.25
2018-05-11T17:25:15.492Z,94904.23
2018-05-11T17:27:44.050Z,94903.67
2018-05-11T17:30:16.619Z,94898.83
2018-05-11T17:32:44.948Z,94900.14
2018-05-11T17:35:13.505Z,94901.19
2018-05-11T17:37:42.067Z,94904.63
2018-05-11T17:40:10.665Z,94905.42
2018-05-11T17:42:39.307Z,94909.03
2018-05-11T17:45:07.907Z,94916.23
2018-05-11T17:47:36.246Z,94911.89
2018-05-11T17:50:04.166Z,94929.60
2018-05-11T17:52:32.734Z,94938.06
2018-05-11T17:55:01.348Z,94934.09
2018-05-11T17:57:29.915Z,94937.20
2018-05-11T17:59:58.475Z,94935.19
2018-05-11T18:02:27.030Z,94940.11
2018-05-11T18:04:55.608Z,94937.13
2018-05-11T18:07:24.211Z,94937.16
2018-05-11T18:09:52.473Z,94932.61
2018-05-11T18:12:21.144Z,94934.91
2018-05-11T18:14:50.076Z,94947.53
2018-05-11T18:17:18.669Z,94942.43
2018-05-11T18:19:47.652Z,94951.12
2018-05-11T18:22:16.255Z,94956.70
2018-05-11T18:24:44.806Z,94955.48
2018-05-11T18:27:13.409Z,94953.99
2018-05-11T18:29:41.995Z,94950.66
2018-05-11T18:32:10.596Z,94954.42
2018-05-11T18:34:39.191Z,94962.95
2018-05-11T18:37:08.235Z,94961.66
2018-05-11T18:39:36.886Z,94965.17
2018-05-11T18:42:05.793Z,94961.95
2018-05-11T18:44:34.766Z,94963.67
2018-05-11T18:47:03.196Z,94971.84
2018-05-11T18:49:31.997Z,94967.59
2018-05-11T18:52:00.356Z,94970.34
2018-05-11T18:54:29.275Z,94975.83
2018-05-11T18:56:57.721Z,94977.94
2018-05-11T18:59:26.324Z,94994.95
2018-05-11T19:01:54.892Z,94994.50
2018-05-11T19:04:23.459Z,94995.76
2018-05-11T19:06:52.323Z,94986.36
2018-05-11T19:09:20.896Z,94994.27
2018-05-11T19:11:49.530Z,94996.55
2018-05-11T19:14:18.116Z,94999.12
2018-05-11T19:16:46.729Z,94997.91
2018-05-11T19:19:15.344Z,95005.69
2018-05-11T19:21:43.904Z,95006.91
